Time;durP1;ratioP1;P1;durP2;ratioP2;P2;SDS_P1;SDS_P2;PMS_P1;PMS_P2;Temp;Humidity;BMP_temperature;BMP_pressure;BME280_temperature;BME280_humidity;BME280_pressure;Samples;Min_cycle;Max_cycle;Signal;HPM_P1;HPM_P2
2022/05/22 00:02:11;;;;;;;7.00;2.97;;;22.30;67.70;;;;;;4986512;28;20224;-76
2022/05/22 00:04:40;;;;;;;7.65;3.10;;;22.40;67.90;;;;;;4993337;28;20207;-76
2022/05/22 00:07:09;;;;;;;8.10;2.97;;;22.30;67.80;;;;;;4982661;28;20228;-78
2022/05/22 00:09:38;;;;;;;9.43;3.53;;;22.30;67.80;;;;;;4977665;28;20194;-76
2022/05/22 00:12:09;;;;;;;7.10;3.30;;;22.30;67.80;;;;;;4981832;28;20201;-76
2022/05/22 00:14:38;;;;;;;6.80;3.10;;;22.30;67.80;;;;;;4982762;28;20679;-76
2022/05/22 00:17:08;;;;;;;10.03;3.40;;;22.30;67.80;;;;;;4988024;28;20189;-76
2022/05/22 00:19:38;;;;;;;5.10;3.30;;;22.30;68.00;;;;;;4990471;28;20208;-76
2022/05/22 00:22:06;;;;;;;5.73;3.00;;;22.30;68.80;;;;;;4982455;28;20828;-75
2022/05/22 00:24:35;;;;;;;5.23;2.83;;;22.20;68.00;;;;;;4986618;28;20189;-75
2022/05/22 00:27:06;;;;;;;5.10;2.60;;;22.20;68.00;;;;;;4989245;28;20278;-75
2022/05/22 00:29:36;;;;;;;5.53;3.00;;;22.20;68.00;;;;;;4987269;28;20288;-77
2022/05/22 00:32:06;;;;;;;9.07;3.37;;;22.10;67.90;;;;;;4983234;28;20209;-76
2022/05/22 00:34:34;;;;;;;4.55;2.83;;;22.10;68.00;;;;;;4978107;28;20996;-75
2022/05/22 00:37:03;;;;;;;6.97;3.83;;;22.10;68.00;;;;;;4982188;28;20779;-75
2022/05/22 00:39:31;;;;;;;10.07;3.30;;;22.10;68.10;;;;;;4974088;28;20862;-76
2022/05/22 00:42:01;;;;;;;7.57;2.83;;;22.10;68.10;;;;;;4994076;28;20201;-75
2022/05/22 00:44:30;;;;;;;4.25;2.70;;;22.10;68.00;;;;;;4980334;28;20212;-74
2022/05/22 00:46:59;;;;;;;5.15;2.95;;;22.10;68.10;;;;;;4987674;28;20236;-75
2022/05/22 00:49:30;;;;;;;4.70;3.13;;;22.10;68.10;;;;;;4985519;28;20204;-75
2022/05/22 00:52:03;;;;;;;4.43;3.00;;;22.00;68.10;;;;;;4973331;28;20675;-75
2022/05/22 00:54:42;;;;;;;6.63;3.27;;;22.00;68.10;;;;;;4979557;28;20287;-77
2022/05/22 00:57:16;;;;;;;5.00;3.03;;;22.00;68.20;;;;;;4983401;28;20580;-75
2022/05/22 00:59:50;;;;;;;5.13;3.30;;;21.90;68.30;;;;;;4991869;28;20716;-75
2022/05/22 01:02:20;;;;;;;4.90;3.20;;;21.90;68.40;;;;;;4987832;28;20201;-74
2022/05/22 01:04:50;;;;;;;3.97;2.70;;;21.90;68.70;;;;;;4987435;28;20600;-75
2022/05/22 01:07:19;;;;;;;6.77;3.70;;;21.80;68.80;;;;;;4981614;28;20196;-74
2022/05/22 01:09:48;;;;;;;5.47;3.27;;;21.80;68.80;;;;;;4972629;28;20319;-75
2022/05/22 01:12:21;;;;;;;6.33;3.20;;;21.70;68.80;;;;;;4978349;28;20202;-74
2022/05/22 01:14:53;;;;;;;7.60;3.17;;;21.70;68.90;;;;;;4989436;28;20197;-74
2022/05/22 01:17:21;;;;;;;7.37;3.30;;;21.70;69.00;;;;;;4983939;28;20197;-75
2022/05/22 01:19:57;;;;;;;6.10;3.30;;;21.70;69.10;;;;;;4979778;28;20232;-75
2022/05/22 01:22:28;;;;;;;5.03;3.03;;;21.70;69.30;;;;;;4993471;28;20833;-75
2022/05/22 01:24:57;;;;;;;9.07;3.20;;;21.70;69.40;;;;;;4984250;28;20196;-75
2022/05/22 01:27:27;;;;;;;5.23;3.33;;;21.60;69.50;;;;;;4988402;28;20229;-75
2022/05/22 01:30:10;;;;;;;5.87;3.33;;;21.60;69.70;;;;;;4988702;28;20579;-75
2022/05/22 01:32:40;;;;;;;6.27;3.20;;;21.50;69.70;;;;;;4994331;28;20287;-75
2022/05/22 01:35:12;;;;;;;9.07;3.63;;;21.50;69.70;;;;;;4981418;28;20201;-76
2022/05/22 01:37:43;;;;;;;7.43;3.53;;;21.50;69.90;;;;;;4991740;28;20195;-76
2022/05/22 01:40:12;;;;;;;7.03;3.43;;;21.40;70.00;;;;;;4984038;28;20656;-75
2022/05/22 01:42:42;;;;;;;7.90;3.73;;;21.40;70.10;;;;;;4978531;28;20211;-75
2022/05/22 01:45:12;;;;;;;11.60;3.87;;;21.40;70.20;;;;;;4986898;28;20304;-75
2022/05/22 01:47:42;;;;;;;6.67;3.40;;;21.40;70.30;;;;;;4986158;28;20232;-75
2022/05/22 01:50:12;;;;;;;5.97;3.77;;;21.30;70.20;;;;;;4980186;28;20201;-74
2022/05/22 01:52:42;;;;;;;7.07;3.87;;;21.30;70.50;;;;;;4981689;28;20215;-75
2022/05/22 01:55:13;;;;;;;6.40;4.00;;;21.30;70.60;;;;;;4974887;28;20212;-74
2022/05/22 01:57:41;;;;;;;6.93;3.37;;;21.30;70.60;;;;;;4985237;28;20201;-74
2022/05/22 02:00:12;;;;;;;6.67;3.47;;;21.20;70.60;;;;;;4987353;28;20207;-75
2022/05/22 02:02:42;;;;;;;7.67;3.60;;;21.20;70.70;;;;;;4985392;28;20407;-74
2022/05/22 02:05:11;;;;;;;9.00;3.97;;;21.20;70.50;;;;;;4985412;28;20215;-74
2022/05/22 02:10:27;;;;;;;6.37;3.73;;;21.20;70.70;;;;;;4980248;28;20209;-74
2022/05/22 02:12:55;;;;;;;7.60;3.93;;;21.20;70.70;;;;;;4983412;28;20200;-75
2022/05/22 02:15:24;;;;;;;7.07;3.57;;;21.20;70.80;;;;;;4985420;28;20205;-75
2022/05/22 02:17:53;;;;;;;6.40;3.53;;;21.10;70.80;;;;;;4983800;28;20208;-75
2022/05/22 02:20:22;;;;;;;6.63;3.80;;;21.10;70.80;;;;;;4985628;28;20201;-74
2022/05/22 02:22:52;;;;;;;6.33;3.70;;;21.10;71.00;;;;;;4982410;28;20204;-75
2022/05/22 02:25:23;;;;;;;5.33;3.50;;;21.10;71.10;;;;;;4983983;28;20745;-75
2022/05/22 02:27:53;;;;;;;6.10;3.80;;;21.10;71.30;;;;;;4984089;28;20221;-75
2022/05/22 02:30:25;;;;;;;6.33;3.70;;;21.10;71.40;;;;;;4983291;28;20902;-75
2022/05/22 02:32:53;;;;;;;7.30;3.20;;;21.10;71.40;;;;;;4985056;28;20197;-75
2022/05/22 02:35:22;;;;;;;6.47;3.03;;;21.10;71.50;;;;;;4987162;28;20643;-75
2022/05/22 02:37:52;;;;;;;5.60;3.23;;;21.10;71.50;;;;;;4982469;28;20208;-75
2022/05/22 02:40:22;;;;;;;6.13;3.17;;;21.10;71.60;;;;;;4986447;28;20208;-75
2022/05/22 02:42:54;;;;;;;7.93;3.50;;;21.10;71.40;;;;;;4983440;28;20205;-75
2022/05/22 02:45:25;;;;;;;4.87;2.97;;;21.10;71.40;;;;;;4982459;28;20212;-75
2022/05/22 02:47:54;;;;;;;7.40;3.23;;;21.10;71.30;;;;;;4991444;28;20228;-75
2022/05/22 02:50:24;;;;;;;8.23;3.00;;;21.10;71.40;;;;;;4987489;28;20396;-75
2022/05/22 02:52:53;;;;;;;7.83;2.80;;;21.10;71.50;;;;;;4985295;28;20204;-75
2022/05/22 02:55:22;;;;;;;5.40;3.03;;;21.10;71.70;;;;;;4979662;28;20203;-75
2022/05/22 02:57:51;;;;;;;5.63;2.93;;;21.10;71.80;;;;;;4985697;28;20212;-75
2022/05/22 03:00:24;;;;;;;8.73;3.60;;;21.10;71.70;;;;;;4988291;28;20275;-75
2022/05/22 03:02:53;;;;;;;7.27;3.20;;;21.10;71.70;;;;;;5003848;28;20204;-75
2022/05/22 03:05:25;;;;;;;7.00;2.13;;;21.10;71.70;;;;;;4988354;28;20901;-76
2022/05/22 03:07:54;;;;;;;4.03;2.83;;;21.10;71.80;;;;;;4984653;28;20851;-75
2022/05/22 03:10:24;;;;;;;11.93;2.60;;;21.10;71.80;;;;;;4996166;28;20578;-75
2022/05/22 03:12:53;;;;;;;5.40;2.03;;;21.10;71.90;;;;;;4994056;28;20201;-75
2022/05/22 03:15:22;;;;;;;4.07;2.20;;;21.20;71.70;;;;;;4994806;28;20204;-75
2022/05/22 03:17:51;;;;;;;6.07;2.07;;;21.20;71.30;;;;;;4990023;28;20192;-74
2022/05/22 03:20:19;;;;;;;5.80;2.10;;;21.20;71.00;;;;;;4998804;28;20188;-75
2022/05/22 03:22:47;;;;;;;6.30;2.00;;;21.20;70.50;;;;;;4986499;28;20201;-75
2022/05/22 03:25:16;;;;;;;3.07;1.50;;;21.30;70.30;;;;;;4978031;28;20223;-75
2022/05/22 03:27:44;;;;;;;3.47;1.80;;;21.30;69.90;;;;;;4986931;28;20192;-75
2022/05/22 03:30:13;;;;;;;5.67;1.60;;;21.40;69.70;;;;;;4983747;28;20620;-75
2022/05/22 03:32:43;;;;;;;4.80;1.67;;;21.40;69.40;;;;;;4993105;28;20211;-75
2022/05/22 03:35:11;;;;;;;3.40;1.53;;;21.40;69.30;;;;;;4985502;28;20312;-75
2022/05/22 03:37:39;;;;;;;5.13;1.50;;;21.50;69.10;;;;;;4992467;28;20201;-74
2022/05/22 03:40:09;;;;;;;4.07;1.20;;;21.50;68.60;;;;;;4992326;28;20711;-75
2022/05/22 03:42:37;;;;;;;2.80;1.27;;;21.60;68.50;;;;;;4998261;28;20193;-76
2022/05/22 03:45:07;;;;;;;6.67;1.20;;;21.60;68.10;;;;;;4995797;28;20201;-75
2022/05/22 03:47:35;;;;;;;6.18;1.40;;;21.60;67.70;;;;;;4982393;28;20233;-74
2022/05/22 03:50:07;;;;;;;11.67;1.20;;;21.60;66.20;;;;;;4985904;28;20221;-76
2022/05/22 03:52:38;;;;;;;2.67;1.20;;;21.70;66.40;;;;;;4981847;28;20197;-74
2022/05/22 03:55:08;;;;;;;3.40;1.10;;;21.70;65.80;;;;;;4976876;28;21602;-75
2022/05/22 03:57:36;;;;;;;8.37;1.60;;;21.70;65.20;;;;;;4979301;28;20200;-76
2022/05/22 04:00:09;;;;;;;5.77;1.13;;;21.80;65.00;;;;;;4979784;28;20197;-74
2022/05/22 04:02:38;;;;;;;5.67;0.97;;;21.90;64.70;;;;;;4978148;28;20190;-75
2022/05/22 04:05:10;;;;;;;4.00;1.08;;;21.80;63.30;;;;;;4986462;28;20197;-75
2022/05/22 04:07:39;;;;;;;3.72;1.50;;;21.90;63.60;;;;;;4979993;28;20189;-75
2022/05/22 04:10:09;;;;;;;6.73;1.23;;;21.90;63.50;;;;;;4985276;28;20217;-74
2022/05/22 04:12:42;;;;;;;4.57;1.20;;;21.90;63.30;;;;;;4982755;28;20197;-76
2022/05/22 04:15:13;;;;;;;6.00;1.17;;;21.90;63.00;;;;;;4978585;28;20190;-75
2022/05/22 04:17:42;;;;;;;1.50;0.90;;;22.00;62.80;;;;;;4978953;28;20848;-74
2022/05/22 04:20:12;;;;;;;3.80;1.10;;;22.00;62.50;;;;;;4979252;28;20201;-75
2022/05/22 04:25:24;;;;;;;8.07;1.23;;;22.00;61.60;;;;;;4981491;28;20216;-75
2022/05/22 04:27:52;;;;;;;7.95;1.05;;;22.10;61.40;;;;;;4981237;28;20777;-74
2022/05/22 04:30:21;;;;;;;2.33;0.90;;;22.10;61.30;;;;;;4979133;28;20222;-75
2022/05/22 04:32:51;;;;;;;4.68;1.00;;;22.20;61.20;;;;;;4981799;28;20213;-76
2022/05/22 04:35:22;;;;;;;8.00;1.17;;;22.20;61.20;;;;;;4979222;28;22285;-74
2022/05/22 04:37:50;;;;;;;3.95;0.90;;;22.20;60.90;;;;;;4985504;28;20856;-75
2022/05/22 04:40:19;;;;;;;3.17;0.98;;;22.20;60.90;;;;;;4982937;28;20197;-75
2022/05/22 04:42:47;;;;;;;9.63;1.02;;;22.30;60.60;;;;;;4984892;28;20200;-74
2022/05/22 04:45:16;;;;;;;5.82;1.20;;;22.30;59.70;;;;;;4987593;28;20212;-74
2022/05/22 04:47:44;;;;;;;5.90;0.98;;;22.30;59.70;;;;;;4983245;28;20225;-74
2022/05/22 04:50:14;;;;;;;6.25;1.20;;;22.40;60.40;;;;;;4985484;28;20221;-77
2022/05/22 04:52:44;;;;;;;4.90;1.10;;;22.40;59.10;;;;;;4991964;28;20268;-76
2022/05/22 04:55:19;;;;;;;4.10;0.90;;;22.40;58.90;;;;;;4985420;28;20193;-76
2022/05/22 04:57:47;;;;;;;3.15;1.00;;;22.50;59.30;;;;;;4985577;28;20319;-76
2022/05/22 05:00:16;;;;;;;4.25;0.88;;;22.50;59.20;;;;;;4986201;28;20193;-74
2022/05/22 05:02:45;;;;;;;5.72;1.17;;;22.50;59.20;;;;;;4988328;28;20674;-75
2022/05/22 05:05:13;;;;;;;3.40;0.70;;;22.60;59.10;;;;;;4986044;28;20201;-76
2022/05/22 05:07:44;;;;;;;3.45;0.85;;;22.60;58.90;;;;;;4985361;28;20201;-75
2022/05/22 05:10:13;;;;;;;4.15;1.00;;;22.60;58.80;;;;;;4986611;28;20485;-76
2022/05/22 05:12:43;;;;;;;3.67;1.08;;;22.70;58.80;;;;;;4982986;28;20906;-77
2022/05/22 05:15:15;;;;;;;1.45;0.80;;;22.70;58.70;;;;;;4986971;28;20255;-76
2022/05/22 05:17:44;;;;;;;6.13;1.50;;;22.80;58.60;;;;;;4985408;28;20215;-76
2022/05/22 05:20:13;;;;;;;7.68;0.85;;;22.80;58.50;;;;;;4986812;28;20934;-76
2022/05/22 05:22:42;;;;;;;6.25;1.00;;;22.90;58.40;;;;;;4983455;28;20205;-75
2022/05/22 05:25:13;;;;;;;3.03;0.90;;;22.90;58.40;;;;;;4994319;28;20292;-75
2022/05/22 05:27:42;;;;;;;2.88;0.98;;;22.90;58.40;;;;;;4985017;28;20193;-76
2022/05/22 05:30:12;;;;;;;6.07;0.85;;;23.00;57.80;;;;;;4984183;28;20223;-75
2022/05/22 05:32:41;;;;;;;10.15;1.13;;;23.00;57.90;;;;;;4989600;28;20207;-76
2022/05/22 05:35:11;;;;;;;4.72;1.05;;;23.10;58.00;;;;;;4987800;28;20196;-75
2022/05/22 05:37:40;;;;;;;5.63;1.17;;;23.20;58.20;;;;;;4988441;28;20205;-75
2022/05/22 05:40:11;;;;;;;3.08;0.80;;;23.30;58.40;;;;;;4996032;28;20638;-76
2022/05/22 05:42:40;;;;;;;2.15;0.80;;;23.30;58.10;;;;;;4994744;28;20196;-76
2022/05/22 05:45:11;;;;;;;6.65;1.30;;;23.40;58.20;;;;;;4983729;28;20534;-76
2022/05/22 05:47:40;;;;;;;3.70;1.10;;;23.40;57.30;;;;;;4977837;28;20231;-75
2022/05/22 05:50:09;;;;;;;6.07;0.90;;;23.50;57.30;;;;;;4982185;28;20213;-77
2022/05/22 05:52:38;;;;;;;4.35;0.80;;;23.50;57.40;;;;;;4986247;28;20201;-76
2022/05/22 05:55:07;;;;;;;4.30;1.80;;;23.60;57.10;;;;;;4979408;28;20200;-76
2022/05/22 05:57:37;;;;;;;4.78;0.82;;;23.60;56.70;;;;;;4982053;28;20232;-75
2022/05/22 06:00:08;;;;;;;3.55;0.85;;;23.60;56.10;;;;;;4981398;28;20196;-76
2022/05/22 06:02:36;;;;;;;3.75;0.88;;;23.60;56.00;;;;;;4983153;28;20697;-77
2022/05/22 06:05:06;;;;;;;4.70;0.82;;;23.70;56.10;;;;;;4984993;28;20205;-75
2022/05/22 06:07:34;;;;;;;3.72;0.98;;;23.70;55.70;;;;;;4982726;28;20200;-75
2022/05/22 06:10:04;;;;;;;3.30;0.80;;;23.80;56.10;;;;;;4979545;28;20288;-76
2022/05/22 06:12:33;;;;;;;4.57;1.05;;;23.80;56.00;;;;;;4984672;28;20287;-76
2022/05/22 06:15:03;;;;;;;3.67;0.93;;;23.90;56.00;;;;;;4980060;28;20448;-75
2022/05/22 06:17:33;;;;;;;4.50;0.90;;;24.00;55.50;;;;;;4982685;28;20271;-74
2022/05/22 06:20:03;;;;;;;1.67;0.77;;;24.10;55.20;;;;;;4976391;28;20193;-75
2022/05/22 06:22:34;;;;;;;4.63;1.00;;;24.10;55.30;;;;;;4986213;28;20252;-75
2022/05/22 06:25:06;;;;;;;5.50;1.02;;;24.20;55.40;;;;;;4982315;28;20607;-77
2022/05/22 06:27:35;;;;;;;7.22;0.90;;;24.20;55.10;;;;;;4980140;28;20675;-75
2022/05/22 06:30:06;;;;;;;5.15;1.20;;;24.30;54.80;;;;;;4986720;28;20606;-77
2022/05/22 06:32:35;;;;;;;4.63;1.08;;;24.40;55.70;;;;;;4982491;28;20201;-76
2022/05/22 06:35:04;;;;;;;4.82;0.85;;;24.40;55.00;;;;;;4978965;28;20211;-75
2022/05/22 06:37:33;;;;;;;5.32;1.23;;;24.40;55.00;;;;;;4978505;28;20192;-75
2022/05/22 06:40:05;;;;;;;4.30;1.20;;;24.50;55.10;;;;;;4978336;28;20192;-76
2022/05/22 06:42:37;;;;;;;7.47;1.50;;;24.60;55.20;;;;;;4978035;28;20205;-77
2022/05/22 06:45:11;;;;;;;7.28;1.17;;;24.60;55.10;;;;;;4985513;28;20244;-76
2022/05/22 06:47:39;;;;;;;4.93;1.13;;;24.60;55.10;;;;;;4985916;28;20312;-76
2022/05/22 06:50:12;;;;;;;5.82;1.00;;;24.60;55.00;;;;;;4986381;28;20200;-76
2022/05/22 06:52:41;;;;;;;2.60;0.98;;;24.60;55.00;;;;;;4979893;28;20204;-75
2022/05/22 06:55:11;;;;;;;3.55;0.88;;;24.70;54.70;;;;;;4986288;28;20651;-75
2022/05/22 06:57:40;;;;;;;7.85;1.30;;;24.80;54.80;;;;;;4994871;28;20193;-76
2022/05/22 07:00:14;;;;;;;11.18;1.20;;;24.80;54.70;;;;;;4985283;28;20198;-78
2022/05/22 07:02:43;;;;;;;10.65;1.60;;;24.80;54.70;;;;;;4984033;28;20848;-77
2022/05/22 07:05:13;;;;;;;1.52;1.10;;;24.80;54.70;;;;;;4983536;28;20201;-76
2022/05/22 07:07:41;;;;;;;6.32;1.35;;;24.90;54.80;;;;;;4983747;28;20903;-76
2022/05/22 07:10:10;;;;;;;6.45;1.27;;;24.90;54.90;;;;;;4984945;28;20196;-76
2022/05/22 07:12:38;;;;;;;6.82;1.33;;;24.90;54.80;;;;;;4977598;28;20217;-76
2022/05/22 07:15:10;;;;;;;5.03;1.40;;;24.90;54.80;;;;;;4983002;28;20201;-77
2022/05/22 07:17:39;;;;;;;3.38;1.10;;;24.90;55.00;;;;;;4986587;28;20193;-75
2022/05/22 07:20:09;;;;;;;3.30;1.08;;;24.90;54.90;;;;;;4985000;28;20209;-76
2022/05/22 07:22:37;;;;;;;4.88;1.60;;;24.90;54.70;;;;;;4980965;28;20227;-76
2022/05/22 07:25:07;;;;;;;7.40;1.27;;;25.00;54.80;;;;;;4982731;28;20564;-76
2022/05/22 07:27:36;;;;;;;1.95;1.10;;;25.00;55.00;;;;;;4987175;28;20663;-77
2022/05/22 07:30:05;;;;;;;2.63;0.90;;;25.00;54.50;;;;;;4984348;28;20839;-76
2022/05/22 07:32:35;;;;;;;6.13;1.40;;;25.00;54.30;;;;;;4983282;28;20217;-76
2022/05/22 07:35:06;;;;;;;11.52;1.55;;;24.90;53.50;;;;;;4982160;28;20651;-76
2022/05/22 07:37:40;;;;;;;5.95;1.05;;;24.90;53.90;;;;;;4989554;28;20200;-76
2022/05/22 07:40:09;;;;;;;3.67;0.95;;;24.90;54.40;;;;;;4981779;28;20193;-77
2022/05/22 07:42:38;;;;;;;8.60;1.70;;;25.00;55.00;;;;;;4980906;28;20882;-78
2022/05/22 07:45:10;;;;;;;3.75;1.30;;;25.00;55.00;;;;;;4980313;28;20595;-74
2022/05/22 07:47:40;;;;;;;2.80;1.10;;;24.90;54.90;;;;;;4985000;28;20232;-75
2022/05/22 07:50:18;;;;;;;6.78;1.27;;;24.90;55.10;;;;;;4979490;28;20205;-76
2022/05/22 07:52:47;;;;;;;6.53;1.20;;;24.90;55.50;;;;;;4982755;28;20213;-77
2022/05/22 07:55:18;;;;;;;2.80;1.08;;;24.90;55.20;;;;;;4981916;28;20209;-78
2022/05/22 07:57:48;;;;;;;6.78;1.48;;;24.80;54.80;;;;;;4981781;28;20197;-76
2022/05/22 08:00:19;;;;;;;16.50;1.73;;;24.90;55.20;;;;;;4976014;28;20285;-76
2022/05/22 08:02:49;;;;;;;8.07;1.08;;;24.90;55.40;;;;;;4976712;28;20190;-75
2022/05/22 08:05:20;;;;;;;4.55;1.30;;;24.90;55.70;;;;;;4979603;28;20197;-77
2022/05/22 08:07:48;;;;;;;5.30;1.35;;;24.90;55.80;;;;;;4973754;28;20193;-76
2022/05/22 08:10:18;;;;;;;3.67;1.48;;;25.00;55.60;;;;;;4979421;28;20207;-76
2022/05/22 08:12:49;;;;;;;5.80;1.30;;;25.00;55.70;;;;;;4969886;28;20260;-75
2022/05/22 08:15:21;;;;;;;5.72;1.23;;;25.00;56.00;;;;;;4977051;28;20623;-74
2022/05/22 08:17:51;;;;;;;6.03;1.45;;;25.00;56.10;;;;;;4981966;28;20189;-75
2022/05/22 08:20:21;;;;;;;3.03;1.00;;;25.00;55.90;;;;;;4979543;28;20189;-76
2022/05/22 08:22:56;;;;;;;7.60;1.30;;;25.00;55.90;;;;;;4982954;28;20181;-76
2022/05/22 08:25:27;;;;;;;4.38;1.30;;;25.00;55.90;;;;;;4982470;28;20296;-77
2022/05/22 08:27:57;;;;;;;11.55;1.50;;;25.00;56.10;;;;;;4980621;28;20200;-75
2022/05/22 08:30:27;;;;;;;4.85;1.30;;;25.10;56.30;;;;;;4982553;28;20220;-75
2022/05/22 08:32:58;;;;;;;6.70;1.10;;;25.10;56.40;;;;;;4981630;28;20213;-76
2022/05/22 08:35:28;;;;;;;2.75;1.08;;;25.10;56.40;;;;;;4983783;28;20212;-75
2022/05/22 08:37:57;;;;;;;8.50;1.58;;;25.20;56.40;;;;;;4982868;28;20647;-77
2022/05/22 08:40:28;;;;;;;4.13;1.25;;;25.20;56.40;;;;;;4982401;28;20666;-75
2022/05/22 08:43:03;;;;;;;5.20;1.13;;;25.20;56.00;;;;;;4974882;28;20193;-76
2022/05/22 08:45:41;;;;;;;4.10;1.17;;;25.20;56.00;;;;;;4976728;28;20192;-75
2022/05/22 08:48:16;;;;;;;11.02;1.80;;;25.10;55.80;;;;;;4980143;28;20224;-75
2022/05/22 08:50:47;;;;;;;8.48;1.40;;;25.20;56.70;;;;;;4979058;28;20196;-75
2022/05/22 08:53:23;;;;;;;9.15;1.70;;;25.20;56.50;;;;;;4986717;28;20201;-77
2022/05/22 08:58:59;;;;;;;3.80;1.20;;;25.20;56.70;;;;;;4984024;28;20201;-77
2022/05/22 09:01:36;;;;;;;2.90;1.05;;;25.30;56.90;;;;;;4984303;28;20199;-76
2022/05/22 09:04:23;;;;;;;6.78;1.38;;;25.40;56.80;;;;;;4979149;28;20221;-77
2022/05/22 09:07:01;;;;;;;11.20;1.38;;;25.40;56.30;;;;;;4977146;28;20212;-77
2022/05/22 09:09:32;;;;;;;11.13;1.50;;;25.40;56.20;;;;;;4983505;28;20200;-81
2022/05/22 09:12:12;;;;;;;7.53;1.30;;;25.40;56.30;;;;;;4984793;28;20227;-78
2022/05/22 09:14:44;;;;;;;4.63;1.10;;;25.40;56.40;;;;;;4985376;28;20275;-77
2022/05/22 09:17:17;;;;;;;6.03;1.48;;;25.40;56.80;;;;;;4980514;28;20200;-81
2022/05/22 09:19:54;;;;;;;6.35;1.50;;;25.40;56.80;;;;;;4983031;28;20215;-77
2022/05/22 09:22:26;;;;;;;5.60;1.25;;;25.50;56.90;;;;;;4983047;28;20196;-76
2022/05/22 09:25:12;;;;;;;4.40;1.58;;;25.60;57.00;;;;;;4976235;28;20201;-77
2022/05/22 09:27:50;;;;;;;7.30;1.92;;;25.60;57.20;;;;;;4980781;28;20200;-75
2022/05/22 09:30:25;;;;;;;10.02;1.65;;;25.60;57.30;;;;;;4986673;28;20204;-75
2022/05/22 09:33:05;;;;;;;3.35;1.45;;;25.70;57.10;;;;;;4982478;28;20697;-77
2022/05/22 09:35:51;;;;;;;12.45;1.85;;;25.70;55.80;;;;;;4978064;28;20679;-76
2022/05/22 09:38:48;;;;;;;3.75;1.73;;;25.70;55.70;;;;;;4983576;28;20189;-80
2022/05/22 09:41:31;;;;;;;4.90;1.55;;;25.70;55.70;;;;;;4985588;28;20218;-75
2022/05/22 09:44:36;;;;;;;14.82;1.63;;;25.80;55.80;;;;;;4982982;28;20212;-82
2022/05/22 09:48:06;;;;;;;8.40;1.40;;;25.80;55.80;;;;;;4983244;28;20228;-77
2022/05/22 09:50:55;;;;;;;6.75;1.10;;;25.90;55.90;;;;;;4942902;28;20212;-76
2022/05/22 09:53:35;;;;;;;6.22;1.80;;;25.90;56.10;;;;;;4982379;28;20212;-77
2022/05/22 09:56:13;;;;;;;4.38;1.48;;;26.00;55.90;;;;;;4979265;28;20201;-75
2022/05/22 09:59:04;;;;;;;2.40;1.20;;;26.00;56.00;;;;;;4983762;28;20583;-79
2022/05/22 10:01:36;;;;;;;3.55;1.30;;;26.10;55.80;;;;;;4983729;28;20223;-78
2022/05/22 10:04:20;;;;;;;6.25;1.42;;;26.10;55.70;;;;;;4983616;28;20288;-75
2022/05/22 10:07:00;;;;;;;5.22;1.30;;;26.20;55.90;;;;;;4971794;28;20192;-78
2022/05/22 10:09:41;;;;;;;5.07;1.40;;;26.20;54.50;;;;;;4984001;28;20197;-81
2022/05/22 10:12:21;;;;;;;7.88;1.83;;;26.20;54.40;;;;;;4982184;28;20197;-78
2022/05/22 10:15:08;;;;;;;9.25;1.60;;;26.30;54.80;;;;;;4976470;28;20246;-78
2022/05/22 10:17:54;;;;;;;5.65;1.65;;;26.40;55.30;;;;;;4984000;28;20189;-82
2022/05/22 10:20:36;;;;;;;8.80;1.60;;;26.40;55.50;;;;;;4985702;28;20284;-76
2022/05/22 10:23:17;;;;;;;13.73;2.13;;;26.50;55.00;;;;;;4985786;28;20197;-79
2022/05/22 10:25:57;;;;;;;4.65;1.58;;;26.60;55.10;;;;;;4985955;28;20197;-77
2022/05/22 10:28:39;;;;;;;11.57;2.00;;;26.60;55.00;;;;;;4984783;28;20671;-78
2022/05/22 10:31:13;;;;;;;6.25;1.60;;;26.70;55.20;;;;;;4980871;28;20220;-77
2022/05/22 10:33:52;;;;;;;2.60;1.33;;;26.80;54.90;;;;;;4983829;28;20205;-76
2022/05/22 10:36:25;;;;;;;2.55;1.10;;;26.80;54.60;;;;;;4988025;28;20592;-77
2022/05/22 10:39:01;;;;;;;2.38;1.20;;;26.90;54.00;;;;;;4986556;28;20201;-76
2022/05/22 10:44:26;;;;;;;9.07;1.77;;;26.90;53.30;;;;;;4985947;28;20193;-76
2022/05/22 10:46:57;;;;;;;7.03;1.63;;;27.00;53.40;;;;;;4988600;28;20716;-77
2022/05/22 10:49:36;;;;;;;3.53;1.65;;;27.00;53.40;;;;;;4988635;28;20255;-77
2022/05/22 10:52:08;;;;;;;5.68;2.67;;;27.00;53.80;;;;;;4980540;28;20196;-77
2022/05/22 10:54:48;;;;;;;6.00;1.60;;;27.10;54.10;;;;;;4984301;28;20220;-76
2022/05/22 10:57:18;;;;;;;4.80;1.75;;;27.20;54.40;;;;;;4984135;28;20196;-80
2022/05/22 10:59:47;;;;;;;3.72;1.67;;;27.20;54.60;;;;;;4985224;28;20197;-77
2022/05/22 11:02:20;;;;;;;5.18;1.67;;;27.20;54.30;;;;;;4988974;28;20192;-76
2022/05/22 11:04:49;;;;;;;3.33;1.63;;;27.20;54.50;;;;;;4983877;28;20643;-79
2022/05/22 11:07:29;;;;;;;4.93;2.22;;;27.20;53.80;;;;;;4988957;28;20201;-77
2022/05/22 11:10:10;;;;;;;4.00;1.50;;;27.20;53.00;;;;;;4982271;28;20208;-77
2022/05/22 11:12:39;;;;;;;3.97;1.60;;;27.30;53.30;;;;;;4981845;28;20201;-77
2022/05/22 11:15:25;;;;;;;7.65;1.70;;;27.40;53.50;;;;;;4991332;28;20195;-77
2022/05/22 11:18:03;;;;;;;6.07;1.50;;;27.50;53.90;;;;;;4986509;28;20196;-75
2022/05/22 11:20:32;;;;;;;8.35;1.80;;;27.70;53.60;;;;;;4989179;28;20200;-77
2022/05/22 11:23:09;;;;;;;8.98;1.88;;;27.80;53.80;;;;;;4992611;28;20193;-76
2022/05/22 11:25:47;;;;;;;3.42;1.40;;;27.90;53.50;;;;;;4987218;28;20740;-77
2022/05/22 11:28:48;;;;;;;5.80;2.30;;;28.00;53.20;;;;;;4978660;28;20200;-77
2022/05/22 11:31:34;;;;;;;5.63;1.70;;;28.10;53.30;;;;;;4981697;28;20230;-77
2022/05/22 11:34:16;;;;;;;8.88;1.85;;;28.20;53.10;;;;;;4986826;28;20891;-76
2022/05/22 11:36:56;;;;;;;4.70;1.65;;;28.30;53.10;;;;;;4983571;28;20197;-77
2022/05/22 11:39:51;;;;;;;5.97;1.80;;;28.40;53.10;;;;;;4981850;28;20811;-78
2022/05/22 11:42:27;;;;;;;6.25;1.30;;;28.40;52.70;;;;;;4985108;28;20205;-77
2022/05/22 11:45:12;;;;;;;2.85;1.50;;;28.40;52.50;;;;;;4985564;28;20200;-76
2022/05/22 11:48:12;;;;;;;6.22;1.60;;;28.50;52.60;;;;;;4988140;28;20249;-78
2022/05/22 11:50:57;;;;;;;6.28;1.55;;;28.40;52.20;;;;;;4984882;28;20213;-76
2022/05/22 11:54:00;;;;;;;6.05;1.45;;;28.40;51.50;;;;;;4986050;28;20217;-77
2022/05/22 11:56:41;;;;;;;5.45;1.50;;;28.40;51.50;;;;;;4980245;28;20203;-77
2022/05/22 11:59:24;;;;;;;3.17;1.30;;;28.40;51.20;;;;;;4985021;28;20245;-76
2022/05/22 12:02:06;;;;;;;4.43;1.50;;;28.30;51.00;;;;;;4984575;28;20219;-78
2022/05/22 12:05:05;;;;;;;6.97;1.52;;;28.30;51.10;;;;;;4982152;28;20567;-80
2022/05/22 12:07:51;;;;;;;3.97;1.50;;;28.40;50.70;;;;;;4985632;28;20207;-80
2022/05/22 12:10:31;;;;;;;4.25;1.25;;;28.50;51.30;;;;;;4982485;28;20205;-77
2022/05/22 12:13:05;;;;;;;5.80;1.25;;;28.50;51.50;;;;;;4974180;28;20208;-76
2022/05/22 12:15:43;;;;;;;6.13;2.85;;;28.50;51.10;;;;;;4982991;28;20235;-77
2022/05/22 12:18:25;;;;;;;9.68;3.40;;;28.60;50.90;;;;;;4986831;28;20964;-76
2022/05/22 12:21:08;;;;;;;4.03;1.70;;;28.70;50.00;;;;;;4982614;28;20197;-77
2022/05/22 12:23:46;;;;;;;3.33;1.40;;;28.60;47.50;;;;;;4985859;28;20203;-80
2022/05/22 12:26:15;;;;;;;2.65;0.90;;;28.80;45.70;;;;;;4984700;28;20207;-76
2022/05/22 12:28:48;;;;;;;2.00;1.20;;;28.80;44.40;;;;;;4983911;28;20193;-79
2022/05/22 12:31:21;;;;;;;2.08;1.00;;;28.90;43.20;;;;;;4977676;28;20193;-78
2022/05/22 12:33:52;;;;;;;2.80;0.80;;;29.00;42.50;;;;;;4988846;28;20219;-80
2022/05/22 12:36:24;;;;;;;6.78;1.30;;;29.10;42.60;;;;;;4992997;28;20196;-78
2022/05/22 12:39:01;;;;;;;8.02;1.10;;;29.00;40.80;;;;;;4987297;28;20294;-78
2022/05/22 12:41:40;;;;;;;2.83;1.60;;;29.00;40.60;;;;;;4974957;28;20205;-77
2022/05/22 12:44:09;;;;;;;4.32;2.63;;;29.10;41.50;;;;;;4983027;28;20196;-80
2022/05/22 12:46:39;;;;;;;3.97;1.70;;;29.20;41.90;;;;;;4982829;28;20217;-81
2022/05/22 12:49:19;;;;;;;4.70;1.58;;;29.20;41.70;;;;;;4983064;28;20237;-80
2022/05/22 12:52:01;;;;;;;3.17;1.55;;;29.30;41.30;;;;;;4981537;28;20288;-78
2022/05/22 12:54:31;;;;;;;6.57;2.03;;;29.40;41.60;;;;;;4977809;28;20237;-80
2022/05/22 12:57:24;;;;;;;5.30;2.15;;;29.40;41.50;;;;;;4983252;28;20193;-79
2022/05/22 12:59:54;;;;;;;8.68;1.35;;;29.50;41.30;;;;;;4964575;28;20198;-77
2022/05/22 13:02:43;;;;;;;4.60;1.80;;;29.50;39.60;;;;;;4983320;28;20396;-81
2022/05/22 13:05:19;;;;;;;3.60;1.00;;;29.60;39.30;;;;;;4979986;28;20584;-78
2022/05/22 13:07:48;;;;;;;4.43;0.90;;;29.70;38.40;;;;;;4985382;28;20205;-77
2022/05/22 13:10:24;;;;;;;6.75;0.90;;;29.80;38.80;;;;;;4982794;28;20235;-77
2022/05/22 13:12:57;;;;;;;5.35;1.08;;;30.00;39.10;;;;;;4983296;28;20192;-79
2022/05/22 13:15:27;;;;;;;1.50;0.95;;;30.20;39.30;;;;;;4984608;28;20212;-78
2022/05/22 13:18:13;;;;;;;4.13;1.60;;;30.30;39.40;;;;;;4978783;28;20196;-78
2022/05/22 13:20:51;;;;;;;3.30;1.50;;;30.20;39.50;;;;;;4983542;28;20197;-78
2022/05/22 13:23:34;;;;;;;1.52;0.90;;;30.20;39.50;;;;;;4980542;28;20275;-76
2022/05/22 13:26:09;;;;;;;1.40;0.80;;;30.20;38.80;;;;;;4984467;28;20197;-80
2022/05/22 13:28:48;;;;;;;2.65;1.00;;;30.10;38.20;;;;;;4977763;28;20227;-80